createdAt,value
2022-11-20T00:01:23.667Z,8.30
2022-11-20T00:03:53.124Z,9.23
2022-11-20T00:06:23.562Z,8.73
2022-11-20T00:08:52.522Z,7.20
2022-11-20T00:11:22.174Z,9.55
2022-11-20T00:13:53.458Z,9.35
2022-11-20T00:16:23.120Z,8.10
2022-11-20T00:18:51.625Z,8.32
2022-11-20T00:21:23.342Z,9.10
2022-11-20T00:23:54.858Z,10.18
2022-11-20T00:26:24.478Z,11.80
2022-11-20T00:28:54.700Z,6.93
2022-11-20T00:31:23.211Z,11.57
2022-11-20T00:33:51.775Z,7.38
2022-11-20T00:36:23.087Z,10.75
2022-11-20T00:38:54.297Z,8.77
2022-11-20T00:41:22.895Z,8.95
2022-11-20T00:43:51.258Z,7.63
2022-11-20T00:46:21.288Z,7.38
2022-11-20T00:48:49.789Z,8.88
2022-11-20T00:51:20.029Z,9.63
2022-11-20T00:53:50.357Z,7.83
2022-11-20T00:56:20.172Z,7.27
2022-11-20T00:58:50.045Z,7.28
2022-11-20T01:01:20.644Z,9.57
2022-11-20T01:03:50.786Z,9.80
2022-11-20T01:06:20.196Z,10.00
2022-11-20T01:08:50.713Z,7.80
2022-11-20T01:11:20.838Z,9.93
2022-11-20T01:13:50.034Z,6.50
2022-11-20T01:16:20.444Z,6.30
2022-11-20T01:18:51.489Z,8.38
2022-11-20T01:23:51.218Z,6.13
2022-11-20T01:26:22.434Z,7.93
2022-11-20T01:28:51.335Z,10.45
2022-11-20T01:31:21.238Z,6.00
2022-11-20T01:33:51.534Z,6.43
2022-11-20T01:36:20.655Z,9.40
2022-11-20T01:38:53.195Z,7.65
2022-11-20T01:41:36.108Z,9.13
2022-11-20T01:44:05.568Z,6.97
2022-11-20T01:46:34.480Z,7.47
2022-11-20T01:49:06.129Z,8.32
2022-11-20T01:51:37.255Z,7.57
2022-11-20T01:54:09.769Z,7.63
2022-11-20T01:56:41.015Z,7.75
2022-11-20T01:59:12.616Z,7.18
2022-11-20T02:01:40.787Z,8.90
2022-11-20T02:04:10.244Z,7.47
2022-11-20T02:06:43.314Z,7.63
2022-11-20T02:09:13.465Z,8.10
2022-11-20T02:11:41.652Z,6.57
2022-11-20T02:14:09.935Z,8.73
2022-11-20T02:16:41.535Z,7.00
2022-11-20T02:19:22.738Z,6.60
2022-11-20T02:22:00.125Z,9.15
2022-11-20T02:24:29.811Z,7.60
2022-11-20T02:27:01.754Z,6.95
2022-11-20T02:29:35.832Z,7.40
2022-11-20T02:32:04.966Z,7.30
2022-11-20T02:34:33.219Z,7.13
2022-11-20T02:37:01.898Z,7.10
2022-11-20T02:39:31.531Z,6.10
2022-11-20T02:41:59.781Z,7.20
2022-11-20T02:44:27.893Z,7.13
2022-11-20T02:46:58.830Z,5.63
2022-11-20T02:49:27.312Z,6.65
2022-11-20T02:51:55.504Z,7.50
2022-11-20T02:54:23.681Z,7.03
2022-11-20T02:56:53.582Z,6.93
2022-11-20T02:59:22.193Z,6.90
2022-11-20T03:01:50.655Z,7.50
2022-11-20T03:04:19.058Z,7.55
2022-11-20T03:06:47.306Z,7.97
2022-11-20T03:09:15.561Z,6.68
2022-11-20T03:11:43.639Z,7.13
2022-11-20T03:14:13.122Z,8.60
2022-11-20T03:16:41.211Z,7.45
2022-11-20T03:19:09.497Z,6.85
2022-11-20T03:21:37.986Z,6.00
2022-11-20T03:24:06.739Z,7.20
2022-11-20T03:26:35.055Z,6.47
2022-11-20T03:29:05.067Z,5.95
2022-11-20T03:31:36.700Z,6.60
2022-11-20T03:34:06.239Z,6.93
2022-11-20T03:36:34.488Z,6.47
2022-11-20T03:39:02.968Z,6.10
2022-11-20T03:41:32.285Z,6.32
2022-11-20T03:44:02.123Z,8.02
2022-11-20T03:46:30.741Z,6.03
2022-11-20T03:49:00.502Z,7.60
2022-11-20T03:51:30.286Z,7.07
2022-11-20T03:54:01.825Z,6.28
2022-11-20T03:56:31.602Z,5.88
2022-11-20T03:58:59.949Z,6.80
2022-11-20T04:01:30.246Z,6.65
2022-11-20T04:04:00.040Z,6.33
2022-11-20T04:06:30.389Z,6.43
2022-11-20T04:09:00.135Z,6.35
2022-11-20T04:11:31.358Z,6.50
2022-11-20T04:14:01.497Z,6.63
2022-11-20T04:16:32.752Z,6.07
2022-11-20T04:19:03.946Z,5.60
2022-11-20T04:21:32.034Z,5.78
2022-11-20T04:24:00.820Z,5.63
2022-11-20T04:26:30.269Z,7.05
2022-11-20T04:28:59.145Z,5.47
2022-11-20T04:31:29.304Z,7.38
2022-11-20T04:34:00.893Z,6.73
2022-11-20T04:36:30.755Z,7.95
2022-11-20T04:39:00.411Z,6.57
2022-11-20T04:41:29.835Z,7.00
2022-11-20T04:44:03.366Z,6.10
2022-11-20T04:46:33.383Z,5.93
2022-11-20T04:49:01.904Z,5.47
2022-11-20T04:51:31.618Z,6.05
2022-11-20T04:53:59.764Z,7.57
2022-11-20T04:56:27.876Z,5.60
2022-11-20T04:58:55.960Z,6.30
2022-11-20T05:01:26.005Z,6.22
2022-11-20T05:03:54.525Z,7.72
2022-11-20T05:06:24.539Z,5.43
2022-11-20T05:08:54.038Z,8.25
2022-11-20T05:11:23.087Z,5.88
2022-11-20T05:13:52.123Z,4.88
2022-11-20T05:16:21.920Z,5.80
2022-11-20T05:18:50.812Z,5.82
2022-11-20T05:21:19.940Z,4.97
2022-11-20T05:23:48.524Z,5.05
2022-11-20T05:26:19.695Z,5.95
2022-11-20T05:28:47.954Z,5.00
2022-11-20T05:31:23.432Z,6.05
2022-11-20T05:33:54.678Z,5.47
2022-11-20T05:36:22.795Z,6.78
2022-11-20T05:38:51.952Z,5.68
2022-11-20T05:41:23.216Z,5.88
2022-11-20T05:43:52.336Z,6.25
2022-11-20T05:46:28.267Z,5.57
2022-11-20T05:48:58.503Z,5.63
2022-11-20T05:51:27.497Z,5.60
2022-11-20T05:53:55.686Z,6.00
2022-11-20T05:56:25.229Z,5.80
2022-11-20T05:58:53.449Z,6.13
2022-11-20T06:01:23.482Z,5.75
2022-11-20T06:03:52.634Z,7.63
2022-11-20T06:06:21.956Z,5.65
2022-11-20T06:08:50.527Z,11.15
2022-11-20T06:11:19.321Z,5.78
2022-11-20T06:13:49.178Z,12.23
2022-11-20T06:16:18.918Z,10.02
2022-11-20T06:18:47.517Z,11.63
2022-11-20T06:21:17.562Z,11.40
2022-11-20T06:23:46.446Z,10.10
2022-11-20T06:26:16.415Z,16.50
2022-11-20T06:28:44.578Z,15.07
2022-11-20T06:31:15.557Z,16.50
2022-11-20T06:36:12.822Z,17.85
2022-11-20T06:38:41.644Z,13.60
2022-11-20T06:41:13.705Z,14.40
2022-11-20T06:43:41.951Z,9.32
2022-11-20T06:46:13.723Z,20.98
2022-11-20T06:48:42.350Z,15.18
2022-11-20T06:51:10.951Z,15.38
2022-11-20T06:53:39.322Z,17.33
2022-11-20T06:56:08.162Z,13.77
2022-11-20T06:58:37.489Z,21.88
2022-11-20T07:01:07.862Z,25.77
2022-11-20T07:03:37.599Z,20.95
2022-11-20T07:06:06.801Z,30.25
2022-11-20T07:08:35.527Z,16.67
2022-11-20T07:11:05.942Z,13.75
2022-11-20T07:13:34.623Z,22.45
2022-11-20T07:16:03.201Z,18.50
2022-11-20T07:18:31.374Z,14.50
2022-11-20T07:21:04.121Z,21.10
2022-11-20T07:23:32.324Z,27.70
2022-11-20T07:26:00.554Z,14.18
2022-11-20T07:28:28.817Z,17.20
2022-11-20T07:30:57.058Z,20.90
2022-11-20T07:33:26.080Z,18.77
2022-11-20T07:35:54.404Z,14.93
2022-11-20T07:38:24.474Z,22.00
2022-11-20T07:40:56.583Z,23.47
2022-11-20T07:43:24.770Z,15.48
2022-11-20T07:45:52.889Z,19.48
2022-11-20T07:48:21.062Z,16.10
2022-11-20T07:50:49.160Z,23.83
2022-11-20T07:53:21.755Z,17.15
2022-11-20T07:55:53.371Z,20.38
2022-11-20T07:58:21.646Z,17.92
2022-11-20T08:00:49.810Z,15.68
2022-11-20T08:03:24.141Z,21.42
2022-11-20T08:05:52.933Z,12.90
2022-11-20T08:08:21.135Z,14.85
2022-11-20T08:10:50.667Z,17.92
2022-11-20T08:13:36.343Z,13.27
2022-11-20T08:16:04.696Z,16.70
2022-11-20T08:18:33.201Z,9.38
2022-11-20T08:21:04.644Z,18.38
2022-11-20T08:23:32.893Z,12.77
2022-11-20T08:26:02.601Z,12.90
2022-11-20T08:28:31.019Z,18.02
2022-11-20T08:31:01.086Z,18.88
2022-11-20T08:33:29.748Z,21.90
2022-11-20T08:36:01.931Z,34.20
2022-11-20T08:38:30.206Z,37.20
2022-11-20T08:41:16.754Z,27.05
2022-11-20T08:43:46.406Z,27.58
2022-11-20T08:46:14.904Z,36.20
2022-11-20T08:48:43.075Z,40.60
2022-11-20T08:51:11.955Z,43.88
2022-11-20T08:53:40.401Z,33.15
2022-11-20T08:56:10.643Z,36.95
2022-11-20T08:58:55.312Z,50.07
2022-11-20T09:01:30.125Z,42.13
2022-11-20T09:06:27.293Z,43.13
2022-11-20T09:08:55.557Z,38.22
2022-11-20T09:11:24.011Z,38.72
2022-11-20T09:13:52.286Z,51.40
2022-11-20T09:16:20.588Z,37.65
2022-11-20T09:19:02.260Z,43.53
2022-11-20T09:21:40.508Z,44.05
2022-11-20T09:24:09.219Z,51.28
2022-11-20T09:26:37.492Z,30.23
2022-11-20T09:29:05.653Z,49.17
2022-11-20T09:31:34.103Z,43.00
2022-11-20T09:34:03.676Z,33.50
2022-11-20T09:36:31.990Z,38.10
2022-11-20T09:39:00.242Z,33.78
2022-11-20T09:41:50.747Z,35.80
2022-11-20T09:44:35.014Z,35.13
2022-11-20T09:47:10.350Z,33.05
2022-11-20T09:49:57.805Z,35.17
2022-11-20T09:52:39.135Z,32.55
2022-11-20T09:55:10.849Z,37.88
2022-11-20T09:57:42.127Z,37.33
2022-11-20T10:00:14.087Z,31.25
2022-11-20T10:02:48.370Z,34.00
2022-11-20T10:05:22.635Z,28.08
2022-11-20T10:07:56.997Z,35.97
2022-11-20T10:10:39.683Z,112.40
2022-11-20T10:13:25.591Z,48.42
2022-11-20T10:16:05.518Z,39.10
2022-11-20T10:18:46.352Z,33.95
2022-11-20T10:21:28.470Z,54.33
2022-11-20T10:24:19.165Z,47.45
2022-11-20T10:26:55.803Z,51.22
2022-11-20T10:29:31.588Z,51.80
2022-11-20T10:32:04.377Z,42.92
2022-11-20T10:34:37.368Z,45.83
2022-11-20T10:37:12.162Z,58.13
2022-11-20T10:39:48.457Z,59.80
2022-11-20T10:42:22.120Z,58.28
2022-11-20T10:45:06.015Z,69.55
2022-11-20T10:47:35.466Z,54.10
2022-11-20T10:50:07.383Z,64.85
2022-11-20T10:52:47.468Z,55.00
2022-11-20T10:55:28.082Z,64.25
2022-11-20T10:58:01.280Z,58.40
2022-11-20T11:00:29.543Z,49.63
2022-11-20T11:03:03.308Z,40.13
2022-11-20T11:05:42.226Z,54.58
2022-11-20T11:08:15.887Z,55.35
2022-11-20T11:10:49.614Z,48.90
2022-11-20T11:13:25.882Z,39.75
2022-11-20T11:15:54.786Z,36.85
2022-11-20T11:18:28.012Z,39.88
2022-11-20T11:20:57.182Z,39.10
2022-11-20T11:23:34.280Z,47.28
2022-11-20T11:26:04.743Z,65.93
2022-11-20T11:28:33.166Z,37.65
2022-11-20T11:31:01.605Z,35.28
2022-11-20T11:33:30.978Z,45.30
2022-11-20T11:36:02.070Z,36.60
2022-11-20T11:38:36.734Z,45.25
2022-11-20T11:41:06.488Z,42.90
2022-11-20T11:43:55.023Z,37.45
2022-11-20T11:46:32.091Z,37.90
2022-11-20T11:49:01.759Z,40.25
2022-11-20T11:51:37.361Z,43.80
2022-11-20T11:54:16.816Z,51.05
2022-11-20T11:56:45.778Z,51.83
2022-11-20T11:59:25.695Z,48.72
2022-11-20T12:01:57.337Z,57.83
2022-11-20T12:04:37.845Z,51.60
2022-11-20T12:07:38.783Z,51.65
2022-11-20T12:10:04.095Z,49.92
2022-11-20T12:12:38.430Z,53.28
2022-11-20T12:15:11.894Z,49.53
2022-11-20T12:17:40.027Z,56.00
2022-11-20T12:20:15.231Z,51.42
2022-11-20T12:22:52.496Z,46.63
2022-11-20T12:25:24.992Z,43.78
2022-11-20T12:28:17.964Z,49.00
2022-11-20T12:30:58.088Z,49.72
2022-11-20T12:33:49.484Z,43.40
2022-11-20T12:36:29.916Z,40.17
2022-11-20T12:39:12.974Z,52.53
2022-11-20T12:42:11.596Z,47.38
2022-11-20T12:45:13.442Z,41.35
2022-11-20T12:48:11.068Z,39.92
2022-11-20T12:51:13.383Z,44.30
2022-11-20T12:53:51.862Z,40.60
2022-11-20T12:56:32.222Z,42.55
2022-11-20T12:59:20.705Z,38.67
2022-11-20T13:01:54.699Z,43.40
2022-11-20T13:04:41.352Z,42.70
2022-11-20T13:07:14.532Z,41.88
2022-11-20T13:09:47.040Z,40.20
2022-11-20T13:12:21.069Z,39.85
2022-11-20T13:15:00.149Z,36.10
2022-11-20T13:17:36.423Z,32.83
2022-11-20T13:20:07.381Z,35.10
2022-11-20T13:25:24.083Z,36.10
2022-11-20T13:27:52.874Z,35.55
2022-11-20T13:30:24.558Z,33.28
2022-11-20T13:32:55.096Z,33.67
2022-11-20T13:35:29.613Z,31.23
2022-11-20T13:38:07.769Z,35.13
2022-11-20T13:40:37.704Z,32.33
2022-11-20T13:43:23.839Z,30.10
2022-11-20T13:46:01.409Z,29.45
2022-11-20T13:48:33.500Z,30.38
2022-11-20T13:51:28.614Z,29.58
2022-11-20T13:54:21.904Z,29.95
2022-11-20T13:57:03.716Z,33.83
2022-11-20T13:59:52.917Z,29.30
2022-11-20T14:02:24.348Z,30.30
2022-11-20T14:04:56.034Z,33.13
2022-11-20T14:07:27.568Z,30.48
2022-11-20T14:09:58.082Z,34.05
2022-11-20T14:12:31.629Z,25.08
2022-11-20T14:15:00.651Z,29.30
2022-11-20T14:17:35.318Z,27.65
2022-11-20T14:20:07.193Z,28.83
2022-11-20T14:22:35.408Z,29.38
2022-11-20T14:25:07.942Z,26.05
2022-11-20T14:27:38.487Z,29.67
2022-11-20T14:30:08.522Z,30.17
2022-11-20T14:32:38.427Z,27.10
2022-11-20T14:35:11.638Z,24.98
2022-11-20T14:37:41.027Z,24.20
2022-11-20T14:40:25.764Z,25.33
2022-11-20T14:42:54.099Z,27.33
2022-11-20T14:45:23.436Z,28.30
2022-11-20T14:47:55.352Z,22.70
2022-11-20T14:50:26.768Z,24.95
2022-11-20T14:52:59.134Z,26.38
2022-11-20T14:55:32.566Z,23.02
2022-11-20T14:58:03.079Z,24.40
2022-11-20T15:00:32.395Z,23.00
2022-11-20T15:03:02.130Z,22.63
2022-11-20T15:05:48.661Z,21.02
2022-11-20T15:08:17.797Z,24.52
2022-11-20T15:10:52.880Z,18.65
2022-11-20T15:13:28.729Z,18.48
2022-11-20T15:15:59.772Z,21.60
2022-11-20T15:21:03.357Z,23.40
2022-11-20T15:23:31.747Z,17.63
2022-11-20T15:26:00.421Z,17.73
2022-11-20T15:28:33.140Z,16.67
2022-11-20T15:31:01.575Z,17.70
2022-11-20T15:33:31.726Z,17.17
2022-11-20T15:36:00.257Z,18.03
2022-11-20T15:38:28.600Z,16.98
2022-11-20T15:40:56.761Z,18.83
2022-11-20T15:43:25.088Z,17.38
2022-11-20T15:45:58.763Z,16.23
2022-11-20T15:48:29.822Z,15.48
2022-11-20T15:53:28.655Z,14.73
2022-11-20T15:55:57.064Z,13.55
2022-11-20T15:58:25.396Z,14.75
2022-11-20T16:00:53.563Z,14.88
2022-11-20T16:03:22.317Z,14.77
2022-11-20T16:05:50.934Z,16.90
2022-11-20T16:08:20.769Z,14.95
2022-11-20T16:10:48.917Z,17.08
2022-11-20T16:13:35.670Z,12.80
2022-11-20T16:16:07.593Z,13.95
2022-11-20T16:18:35.785Z,13.15
2022-11-20T16:21:04.746Z,15.85
2022-11-20T16:23:34.214Z,11.00
2022-11-20T16:26:10.646Z,16.13
2022-11-20T16:28:38.752Z,16.02
2022-11-20T16:31:14.215Z,13.50
2022-11-20T16:33:42.495Z,11.65
2022-11-20T16:36:12.299Z,13.27
2022-11-20T16:38:42.267Z,13.65
2022-11-20T16:41:14.581Z,13.13
2022-11-20T16:43:50.326Z,12.55
2022-11-20T16:46:20.155Z,16.85
2022-11-20T16:48:55.389Z,11.90
2022-11-20T16:51:24.207Z,12.85
2022-11-20T16:53:55.913Z,10.93
2022-11-20T16:56:25.819Z,12.75
2022-11-20T16:58:56.236Z,12.02
2022-11-20T17:01:26.233Z,11.48
2022-11-20T17:03:58.962Z,13.88
2022-11-20T17:06:29.102Z,12.05
2022-11-20T17:08:59.688Z,12.17
2022-11-20T17:11:29.219Z,11.77
2022-11-20T17:13:57.736Z,11.85
2022-11-20T17:16:26.337Z,12.20
2022-11-20T17:19:01.249Z,13.50
2022-11-20T17:21:31.517Z,12.00
2022-11-20T17:24:03.762Z,11.52
2022-11-20T17:26:32.091Z,11.63
2022-11-20T17:29:01.743Z,12.25
2022-11-20T17:31:31.234Z,12.68
2022-11-20T17:34:01.669Z,12.63
2022-11-20T17:36:30.724Z,12.32
2022-11-20T17:38:59.160Z,12.02
2022-11-20T17:41:29.963Z,11.27
2022-11-20T17:43:59.849Z,10.25
2022-11-20T17:46:30.018Z,11.52
2022-11-20T17:48:58.445Z,10.77
2022-11-20T17:51:28.629Z,9.98
2022-11-20T17:53:59.578Z,11.40
2022-11-20T17:59:18.685Z,11.63
2022-11-20T18:01:46.983Z,11.10
2022-11-20T18:04:15.555Z,12.93
2022-11-20T18:06:44.146Z,12.48
2022-11-20T18:09:12.714Z,10.73
2022-11-20T18:11:43.650Z,12.10
2022-11-20T18:14:36.454Z,10.93
2022-11-20T18:17:06.759Z,10.65
2022-11-20T18:19:42.329Z,9.97
2022-11-20T18:24:45.805Z,10.45
2022-11-20T18:27:18.206Z,10.38
2022-11-20T18:29:48.465Z,10.65
2022-11-20T18:32:16.627Z,10.53
2022-11-20T18:34:44.769Z,8.80
2022-11-20T18:37:15.286Z,11.18
2022-11-20T18:39:43.721Z,10.43
2022-11-20T18:42:33.159Z,10.05
2022-11-20T18:45:02.390Z,9.60
2022-11-20T18:47:32.769Z,9.52
2022-11-20T18:50:02.349Z,9.50
2022-11-20T18:52:33.967Z,11.57
2022-11-20T18:55:02.994Z,11.02
2022-11-20T18:57:33.199Z,10.35
2022-11-20T19:02:49.450Z,11.88
2022-11-20T19:05:17.576Z,10.23
2022-11-20T19:07:45.753Z,10.77
2022-11-20T19:10:13.976Z,9.98
2022-11-20T19:12:43.477Z,10.55
2022-11-20T19:15:12.184Z,9.85
2022-11-20T19:17:40.342Z,10.48
2022-11-20T19:20:09.034Z,9.50
2022-11-20T19:22:37.267Z,10.32
2022-11-20T19:25:06.080Z,9.82
2022-11-20T19:27:34.555Z,10.45
2022-11-20T19:30:04.172Z,9.63
2022-11-20T19:32:32.579Z,9.40
2022-11-20T19:35:00.831Z,10.63
2022-11-20T19:37:29.732Z,9.45
2022-11-20T19:39:59.646Z,9.80
2022-11-20T19:42:27.968Z,10.75
2022-11-20T19:44:58.105Z,9.45
2022-11-20T19:47:45.989Z,9.60
2022-11-20T19:50:16.022Z,9.65
2022-11-20T19:52:44.185Z,8.60
2022-11-20T19:55:12.362Z,10.18
2022-11-20T19:57:40.470Z,9.20
2022-11-20T20:00:10.583Z,7.90
2022-11-20T20:02:40.121Z,9.03
2022-11-20T20:05:09.040Z,9.60
2022-11-20T20:07:40.093Z,9.35
2022-11-20T20:10:09.418Z,9.75
2022-11-20T20:12:37.786Z,10.23
2022-11-20T20:15:06.988Z,10.68
2022-11-20T20:17:35.038Z,9.10
2022-11-20T20:20:05.003Z,9.00
2022-11-20T20:22:33.166Z,10.60
2022-11-20T20:25:01.313Z,8.95
2022-11-20T20:27:29.428Z,9.30
2022-11-20T20:29:57.592Z,10.25
2022-11-20T20:32:26.747Z,9.38
2022-11-20T20:34:54.890Z,8.80
2022-11-20T20:37:24.367Z,9.90
2022-11-20T20:39:52.685Z,8.85
2022-11-20T20:42:20.778Z,9.30
2022-11-20T20:45:02.727Z,10.45
2022-11-20T20:47:32.296Z,9.10
2022-11-20T20:50:00.482Z,9.77
2022-11-20T20:52:30.237Z,8.70
2022-11-20T20:54:58.373Z,8.23
2022-11-20T20:57:28.450Z,8.52
2022-11-20T20:59:56.543Z,7.97
2022-11-20T21:02:25.180Z,8.25
2022-11-20T21:04:53.356Z,9.02
2022-11-20T21:07:21.800Z,8.70
2022-11-20T21:09:51.414Z,8.45
2022-11-20T21:12:19.557Z,8.75
2022-11-20T21:14:47.640Z,8.90
2022-11-20T21:17:15.813Z,8.93
2022-11-20T21:19:44.376Z,8.63
2022-11-20T21:22:11.434Z,8.50
2022-11-20T21:24:39.477Z,9.02
2022-11-20T21:27:08.956Z,8.13
2022-11-20T21:29:37.091Z,8.70
2022-11-20T21:32:05.272Z,8.88
2022-11-20T21:34:33.459Z,8.95
2022-11-20T21:37:01.612Z,8.15
2022-11-20T21:39:30.562Z,8.90
2022-11-20T21:41:58.675Z,8.45
2022-11-20T21:44:32.006Z,8.10
2022-11-20T21:47:00.303Z,8.43
2022-11-20T21:49:28.387Z,8.63
2022-11-20T21:51:56.505Z,9.25
2022-11-20T21:54:24.946Z,7.75
2022-11-20T21:56:53.394Z,7.43
2022-11-20T21:59:22.152Z,7.40
2022-11-20T22:01:51.791Z,7.70
2022-11-20T22:04:20.167Z,8.60
2022-11-20T22:06:48.827Z,8.82
2022-11-20T22:09:17.134Z,9.02
2022-11-20T22:11:45.235Z,8.88
2022-11-20T22:14:21.674Z,7.63
2022-11-20T22:16:52.139Z,7.68
2022-11-20T22:19:21.813Z,7.47
2022-11-20T22:21:50.745Z,7.68
2022-11-20T22:24:21.039Z,9.52
2022-11-20T22:26:49.657Z,7.30
2022-11-20T22:29:19.234Z,8.70
2022-11-20T22:31:47.819Z,8.38
2022-11-20T22:34:19.522Z,9.48
2022-11-20T22:36:47.949Z,7.43
2022-11-20T22:39:16.313Z,7.60
2022-11-20T22:41:44.511Z,6.90
2022-11-20T22:44:14.611Z,8.35
2022-11-20T22:46:42.840Z,8.00
2022-11-20T22:49:11.159Z,8.82
2022-11-20T22:51:42.649Z,8.98
2022-11-20T22:54:13.131Z,7.43
2022-11-20T22:56:41.400Z,7.07
2022-11-20T22:59:09.754Z,7.35
2022-11-20T23:01:38.844Z,7.82
2022-11-20T23:04:08.897Z,8.30
2022-11-20T23:06:37.089Z,7.45
2022-11-20T23:09:07.981Z,9.23
2022-11-20T23:11:36.274Z,8.10
2022-11-20T23:14:06.566Z,7.38
2022-11-20T23:16:35.453Z,7.57
2022-11-20T23:19:05.968Z,8.18
2022-11-20T23:21:34.909Z,7.35
2022-11-20T23:24:03.706Z,8.30
2022-11-20T23:26:35.305Z,8.48
2022-11-20T23:29:03.747Z,6.72
2022-11-20T23:31:33.246Z,8.80
2022-11-20T23:34:01.595Z,8.15
2022-11-20T23:36:29.745Z,6.10
2022-11-20T23:38:57.995Z,6.30
2022-11-20T23:41:26.142Z,6.75
2022-11-20T23:43:55.848Z,6.97
2022-11-20T23:46:24.159Z,6.53
2022-11-20T23:48:52.330Z,7.72
2022-11-20T23:51:20.516Z,7.65
2022-11-20T23:53:48.743Z,7.05
2022-11-20T23:56:16.879Z,6.97
2022-11-20T23:58:45.039Z,7.22
